Current Weather

Delaware Coastal

Georgetown, Delaware (KGED)

Report from: Monday, July 22, 2024 4:54 AM EDT
Current time: Monday, July 22, 2024 5:55 AM EDT

Nearby weather – Weather history – Daily summaries
Weather forecast

Temperature20.6°C (69.1°F)
Dew point20.6°C (69.1°F)
Winds Calm
Visibility10 mi. (16.1 km)
Clouds Sky clear
Altimeter30.05 in.Hg (1018 mB)
Relative humidity100 %
Density altitude836 ft. (255 m)
Sea-level pressure101.8 kPa (1018 mB, 30.05 in.Hg)
Remarks Fully automated report
Automated weather observing station with precipitation discriminator
Pressure falling more slowly
Flight conditions Visual Meteorological Conditions
Raw dataKGED 220854Z AUTO 00000KT 10SM CLR 21/21 A3005 RMK AO2 SLP176 T02060206 56011
An error has occurred. This application may no longer respond until reloaded. Reload 🗙